Home   Weather   Georgia   Rustavi   Past weeks
Flag for Georgia

Past Weather in Rustavi, Georgia — Yesterday and Last 2 Weeks

Currently: 57 °F. Clear. (Weather station: Tbilisi, Georgia). See more current weather

Past Weather in Rustavi — Graph

°F

Rustavi Temperature Yesterday

Maximum temperature yesterday: 73 °F (at 5:00 pm)
Minimum temperature yesterday: 52 °F (at 12:30 am)
Average temperature yesterday: 63 °F

High & Low Weather Summary for the Past Weeks

 TemperatureHumidityPressure
High79 °F (May 4, 2:00 pm)100% (Apr 27, 10:30 pm)30.24 "Hg (Apr 27, 10:30 pm)
Low50 °F (Apr 23, 3:30 am)22% (Apr 23, 4:30 pm)29.74 "Hg (May 4, 3:30 pm)
Average62 °F70%30.03 "Hg
* Reported Apr 23 2:00 am — May 8 2:00 am, Rustavi. Weather by CustomWeather, © 2021

Note: Actual official high and low records may vary slightly from our data, if they occured in-between our weather recording intervals... More about our weather records

Rustavi Weather History for the Previous 24 Hours

Scroll right to see more
 ConditionsComfort  
Time TempWeatherWind HumidityBarometerVisibility
2:00 am
Sat, May 8
57 °FClear.13 mph59%30.12 "Hg10 mi
1:30 am59 °FClear.10 mph55%30.12 "Hg10 mi
1:00 am61 °FPassing clouds.10 mph48%30.12 "HgN/A
12:30 am59 °FPassing clouds.7 mph51%30.12 "HgN/A
12:00 am59 °FPassing clouds.7 mph55%30.12 "HgN/A
11:30 pm
Fri, May 7
61 °FClear.12 mph52%30.09 "Hg10 mi
11:00 pm61 °FPassing clouds.14 mph52%30.09 "HgN/A
10:30 pm63 °FClear.16 mph49%30.09 "Hg10 mi
10:00 pm63 °FClear.13 mph49%30.09 "Hg10 mi
9:30 pm64 °FPassing clouds.10 mph46%30.07 "HgN/A
9:00 pm64 °FClear.17 mph46%30.07 "Hg10 mi
8:30 pm64 °FClear.17 mph43%30.04 "Hg10 mi
8:00 pm66 °FSunny.16 mph40%30.01 "Hg10 mi
7:30 pm68 °FSunny.21 mph35%30.01 "Hg10 mi
7:00 pm70 °FSunny.17 mph33%29.98 "Hg10 mi
6:30 pm70 °FSunny.20 mph35%29.98 "Hg10 mi
6:00 pm72 °FSunny.21 mph31%29.95 "Hg10 mi
5:30 pm72 °FSunny.18 mph29%29.95 "Hg10 mi
5:00 pm73 °FSunny.24 mph25%29.95 "Hg10 mi
4:30 pm72 °FSunny.24 mph27%29.95 "Hg10 mi
4:00 pm72 °FSunny.25 mph33%29.95 "Hg10 mi
3:30 pm72 °FSunny.26 mph31%29.95 "Hg10 mi
3:00 pm72 °FSunny.25 mph31%29.95 "Hg10 mi
2:30 pm72 °FSunny.26 mph33%29.95 "Hg10 mi
2:00 pm70 °FSunny.22 mph35%29.95 "Hg10 mi
1:30 pm70 °FSunny.21 mph38%29.98 "Hg10 mi
1:00 pm70 °FSunny.23 mph38%29.98 "Hg10 mi
12:30 pm68 °FPassing clouds.21 mph43%29.98 "HgN/A
12:00 pm68 °FSunny.18 mph49%30.01 "Hg10 mi
11:30 am66 °FSunny.23 mph52%30.01 "Hg10 mi
11:00 am64 °FSunny.24 mph56%30.01 "Hg10 mi
10:30 am63 °FSunny.26 mph59%30.01 "Hg10 mi
10:00 am61 °FSunny.23 mph59%30.01 "Hg10 mi
9:30 am61 °FSunny.22 mph63%30.01 "Hg10 mi
9:00 am61 °FSunny.16 mph63%30.04 "Hg10 mi
8:30 am59 °FSunny.15 mph68%30.01 "Hg10 mi
8:00 am59 °FSunny.13 mph72%30.01 "Hg10 mi
7:30 am57 °FPassing clouds.6 mph77%30.01 "HgN/A
7:00 am54 °FPassing clouds.3 mph94%30.01 "HgN/A
6:30 am54 °FPassing clouds.7 mph88%30.01 "HgN/A
6:00 am54 °FPartly sunny.3 mph94%30.01 "HgN/A
5:30 am55 °FMostly cloudy.No wind88%30.01 "HgN/A
4:30 am55 °FOvercast.No wind88%30.01 "HgN/A
4:00 am55 °FPartly cloudy.No wind88%30.01 "HgN/A
3:30 am55 °FPartly cloudy.2 mph88%30.01 "HgN/A
3:00 am55 °FPartly cloudy.No wind88%30.01 "HgN/A
Weather by CustomWeather, © 2021

See weather overview